createdAt,value
2018-07-30T00:00:25.739Z,3.10
2018-07-30T00:02:54.227Z,2.90
2018-07-30T00:05:22.863Z,2.90
2018-07-30T00:07:51.353Z,2.80
2018-07-30T00:10:19.860Z,2.70
2018-07-30T00:12:48.326Z,3.60
2018-07-30T00:15:16.803Z,3.20
2018-07-30T00:17:45.329Z,3.30
2018-07-30T00:20:13.799Z,3.10
2018-07-30T00:22:43.007Z,3.33
2018-07-30T00:25:11.547Z,3.37
2018-07-30T00:27:44.227Z,2.93
2018-07-30T00:30:13.351Z,3.10
2018-07-30T00:32:41.845Z,3.00
2018-07-30T00:35:10.319Z,3.30
2018-07-30T00:37:38.874Z,3.30
2018-07-30T00:40:11.368Z,3.43
2018-07-30T00:42:39.870Z,3.10
2018-07-30T00:45:08.344Z,3.43
2018-07-30T00:47:36.821Z,3.40
2018-07-30T00:50:05.347Z,3.40
2018-07-30T00:52:33.823Z,3.27
2018-07-30T00:55:03.113Z,3.60
2018-07-30T00:57:31.597Z,4.23
2018-07-30T01:00:00.098Z,3.20
2018-07-30T01:02:28.615Z,4.00
2018-07-30T01:04:57.164Z,3.80
2018-07-30T01:07:25.672Z,3.93
2018-07-30T01:09:54.146Z,3.53
2018-07-30T01:12:23.226Z,3.93
2018-07-30T01:14:51.688Z,3.90
2018-07-30T01:17:20.261Z,3.83
2018-07-30T01:19:48.836Z,4.07
2018-07-30T01:22:17.326Z,4.07
2018-07-30T01:24:45.795Z,4.50
2018-07-30T01:27:14.288Z,4.30
2018-07-30T01:29:42.824Z,4.33
2018-07-30T01:32:11.335Z,4.33
2018-07-30T01:34:39.854Z,4.20
2018-07-30T01:37:08.348Z,4.40
2018-07-30T01:39:36.990Z,4.43
2018-07-30T01:42:05.519Z,4.60
2018-07-30T01:44:34.480Z,4.40
2018-07-30T01:47:03.077Z,4.67
2018-07-30T01:49:31.554Z,4.73
2018-07-30T01:52:00.073Z,4.90
2018-07-30T01:54:28.851Z,4.30
2018-07-30T01:56:57.419Z,3.93
2018-07-30T01:59:25.979Z,4.10
2018-07-30T02:01:54.459Z,4.63
2018-07-30T02:04:23.042Z,4.30
2018-07-30T02:06:51.596Z,3.80
2018-07-30T02:09:20.119Z,3.83
2018-07-30T02:11:48.640Z,4.00
2018-07-30T02:14:17.194Z,3.83
2018-07-30T02:16:45.649Z,3.80
2018-07-30T02:19:19.208Z,3.80
2018-07-30T02:21:47.704Z,3.90
2018-07-30T02:24:16.190Z,3.20
2018-07-30T02:26:44.821Z,3.50
2018-07-30T02:29:13.352Z,3.67
2018-07-30T02:31:41.817Z,3.67
2018-07-30T02:34:10.555Z,4.10
2018-07-30T02:36:39.081Z,3.83
2018-07-30T02:39:11.195Z,3.63
2018-07-30T02:41:39.699Z,4.07
2018-07-30T02:44:08.193Z,3.57
2018-07-30T02:46:36.749Z,4.03
2018-07-30T02:49:05.394Z,4.20
2018-07-30T02:51:33.898Z,4.10
2018-07-30T02:54:02.400Z,4.10
2018-07-30T02:56:30.888Z,3.90
2018-07-30T02:58:59.431Z,3.70
2018-07-30T03:01:27.937Z,3.90
2018-07-30T03:03:56.452Z,4.07
2018-07-30T03:06:25.051Z,3.80
2018-07-30T03:08:53.626Z,3.50
2018-07-30T03:11:22.314Z,4.37
2018-07-30T03:13:50.901Z,3.57
2018-07-30T03:16:19.399Z,3.50
2018-07-30T03:18:47.833Z,4.23
2018-07-30T03:21:16.335Z,4.20
2018-07-30T03:23:44.787Z,3.63
2018-07-30T03:26:13.329Z,3.67
2018-07-30T03:28:42.472Z,3.87
2018-07-30T03:31:10.915Z,3.70
2018-07-30T03:33:39.449Z,4.37
2018-07-30T03:36:07.918Z,4.57
2018-07-30T03:38:37.013Z,4.50
2018-07-30T03:41:05.577Z,4.07
2018-07-30T03:43:34.086Z,4.53
2018-07-30T03:46:02.622Z,4.40
2018-07-30T03:48:31.263Z,4.10
2018-07-30T03:51:00.295Z,4.07
2018-07-30T03:53:28.832Z,3.83
2018-07-30T03:55:57.362Z,4.33
2018-07-30T03:58:25.846Z,4.20
2018-07-30T04:00:55.025Z,4.03
2018-07-30T04:03:23.588Z,4.23
2018-07-30T04:05:52.267Z,4.03
2018-07-30T04:08:20.827Z,4.00
2018-07-30T04:10:49.335Z,4.03
2018-07-30T04:13:17.835Z,4.23
2018-07-30T04:15:46.359Z,3.73
2018-07-30T04:18:14.850Z,4.57
2018-07-30T04:20:43.912Z,4.57
2018-07-30T04:23:12.537Z,4.67
2018-07-30T04:25:41.019Z,3.93
2018-07-30T04:28:09.507Z,4.10
2018-07-30T04:30:38.023Z,4.27
2018-07-30T04:33:06.771Z,4.27
2018-07-30T04:35:35.828Z,4.50
2018-07-30T04:38:04.330Z,4.20
2018-07-30T04:40:32.949Z,4.40
2018-07-30T04:43:01.531Z,5.07
2018-07-30T04:45:30.643Z,4.20
2018-07-30T04:47:59.169Z,4.30
2018-07-30T04:50:27.693Z,4.77
2018-07-30T04:52:56.236Z,5.27
2018-07-30T04:55:24.780Z,4.87
2018-07-30T04:57:53.357Z,4.70
2018-07-30T05:00:22.604Z,4.40
2018-07-30T05:02:51.551Z,4.70
2018-07-30T05:05:20.053Z,4.20
2018-07-30T05:07:48.520Z,4.10
2018-07-30T05:10:17.102Z,4.20
2018-07-30T05:12:49.692Z,4.60
2018-07-30T05:15:18.214Z,4.50
2018-07-30T05:17:46.768Z,4.40
2018-07-30T05:20:15.256Z,4.07
2018-07-30T05:22:43.815Z,4.60
2018-07-30T05:25:12.408Z,4.73
2018-07-30T05:27:41.689Z,4.50
2018-07-30T05:30:10.172Z,4.30
2018-07-30T05:32:38.682Z,4.10
2018-07-30T05:35:07.230Z,4.40
2018-07-30T05:37:35.710Z,4.70
2018-07-30T05:40:04.692Z,4.80
2018-07-30T05:42:33.192Z,4.57
2018-07-30T05:45:01.740Z,4.13
2018-07-30T05:47:30.261Z,5.00
2018-07-30T05:49:58.828Z,5.00
2018-07-30T05:52:27.282Z,4.77
2018-07-30T05:54:55.861Z,5.33
2018-07-30T05:57:24.393Z,4.40
2018-07-30T05:59:52.942Z,5.33
2018-07-30T06:02:21.428Z,5.07
2018-07-30T06:04:49.943Z,5.33
2018-07-30T06:07:18.523Z,4.70
2018-07-30T06:09:47.023Z,5.30
2018-07-30T06:12:15.514Z,5.47
2018-07-30T06:14:44.642Z,5.67
2018-07-30T06:17:13.122Z,5.53
2018-07-30T06:19:41.671Z,5.47
2018-07-30T06:22:10.149Z,5.17
2018-07-30T06:24:38.694Z,4.73
2018-07-30T06:27:07.379Z,5.03
2018-07-30T06:29:35.885Z,5.30
2018-07-30T06:32:04.523Z,5.20
2018-07-30T06:34:34.071Z,4.87
2018-07-30T06:37:02.766Z,5.33
2018-07-30T06:39:31.238Z,5.10
2018-07-30T06:41:59.875Z,5.03
2018-07-30T06:44:28.350Z,5.00
2018-07-30T06:46:56.847Z,5.13
2018-07-30T06:49:25.327Z,4.70
2018-07-30T06:51:53.808Z,5.20
2018-07-30T06:54:22.653Z,4.73
2018-07-30T06:56:51.176Z,4.67
2018-07-30T06:59:22.212Z,5.03
2018-07-30T07:01:52.736Z,4.20
2018-07-30T07:04:21.628Z,4.20
2018-07-30T07:06:50.153Z,4.27
2018-07-30T07:09:18.660Z,4.37
2018-07-30T07:11:47.219Z,4.00
2018-07-30T07:14:15.770Z,4.57
2018-07-30T07:16:44.301Z,4.27
2018-07-30T07:19:12.789Z,4.10
2018-07-30T07:21:42.671Z,4.00
2018-07-30T07:24:11.143Z,4.37
2018-07-30T07:26:39.647Z,3.97
2018-07-30T07:29:08.177Z,4.23
2018-07-30T07:31:36.669Z,3.93
2018-07-30T07:34:05.226Z,3.50
2018-07-30T07:36:33.703Z,3.83
2018-07-30T07:39:02.189Z,4.00
2018-07-30T07:41:30.689Z,3.60
2018-07-30T07:43:59.188Z,3.80
2018-07-30T07:46:27.742Z,3.70
2018-07-30T07:48:56.248Z,3.90
2018-07-30T07:51:24.708Z,3.50
2018-07-30T07:53:53.356Z,4.03
2018-07-30T07:56:21.978Z,3.90
2018-07-30T07:58:50.549Z,3.40
2018-07-30T08:01:19.916Z,3.70
2018-07-30T08:03:48.391Z,3.43
2018-07-30T08:06:16.994Z,3.57
2018-07-30T08:08:45.680Z,3.70
2018-07-30T08:11:14.257Z,3.30
2018-07-30T08:13:42.734Z,3.17
2018-07-30T08:16:11.281Z,3.17
2018-07-30T08:18:39.803Z,3.37
2018-07-30T08:21:08.369Z,3.27
2018-07-30T08:23:37.820Z,3.40
2018-07-30T08:26:06.310Z,3.53
2018-07-30T08:28:34.820Z,3.37
2018-07-30T08:31:03.366Z,3.67
2018-07-30T08:33:31.882Z,3.43
2018-07-30T08:36:00.409Z,3.27
2018-07-30T08:38:28.885Z,2.80
2018-07-30T08:40:57.468Z,3.13
2018-07-30T08:43:26.067Z,2.80
2018-07-30T08:45:54.532Z,3.07
2018-07-30T08:48:23.112Z,2.90
2018-07-30T08:50:51.648Z,3.37
2018-07-30T08:53:20.222Z,3.10
2018-07-30T08:55:49.411Z,3.10
2018-07-30T08:58:17.956Z,3.40
2018-07-30T09:00:46.502Z,3.20
2018-07-30T09:03:15.075Z,3.40
2018-07-30T09:05:44.269Z,3.60
2018-07-30T09:08:12.746Z,2.70
2018-07-30T09:10:41.335Z,2.70
2018-07-30T09:13:09.963Z,2.67
2018-07-30T09:15:39.006Z,2.93
2018-07-30T09:18:07.540Z,3.00
2018-07-30T09:20:40.550Z,2.77
2018-07-30T09:23:09.056Z,2.70
2018-07-30T09:25:37.559Z,2.63
2018-07-30T09:28:06.137Z,2.87
2018-07-30T09:30:34.633Z,2.80
2018-07-30T09:33:03.387Z,2.50
2018-07-30T09:35:31.740Z,2.77
2018-07-30T09:38:00.251Z,2.90
2018-07-30T09:40:28.746Z,2.50
2018-07-30T09:42:58.106Z,3.10
2018-07-30T09:45:26.653Z,2.80
2018-07-30T09:47:55.201Z,2.80
2018-07-30T09:50:23.813Z,2.70
2018-07-30T09:52:52.868Z,2.70
2018-07-30T09:55:22.107Z,2.93
2018-07-30T09:57:50.671Z,2.67
2018-07-30T10:00:24.593Z,2.93
2018-07-30T10:02:53.102Z,2.70
2018-07-30T10:05:21.785Z,2.50
2018-07-30T10:07:50.403Z,2.80
2018-07-30T10:10:19.064Z,2.50
2018-07-30T10:12:47.574Z,2.47
2018-07-30T10:15:16.073Z,2.70
2018-07-30T10:17:44.834Z,2.53
2018-07-30T10:20:13.444Z,2.90
2018-07-30T10:22:41.963Z,2.53
2018-07-30T10:25:10.441Z,2.53
2018-07-30T10:27:38.973Z,2.40
2018-07-30T10:30:08.170Z,2.63
2018-07-30T10:32:36.698Z,2.73
2018-07-30T10:35:05.315Z,2.80
2018-07-30T10:37:33.818Z,2.50
2018-07-30T10:40:02.400Z,2.23
2018-07-30T10:42:30.920Z,2.87
2018-07-30T10:44:59.420Z,2.40
2018-07-30T10:47:27.901Z,2.87
2018-07-30T10:49:56.536Z,2.60
2018-07-30T10:52:25.064Z,2.60
2018-07-30T10:54:53.616Z,2.40
2018-07-30T10:57:22.692Z,2.90
2018-07-30T10:59:51.238Z,2.70
2018-07-30T11:02:19.734Z,2.77
2018-07-30T11:04:48.252Z,3.23
2018-07-30T11:07:16.762Z,2.43
2018-07-30T11:09:45.305Z,2.20
2018-07-30T11:12:13.833Z,2.00
2018-07-30T11:14:42.343Z,2.30
2018-07-30T11:17:10.864Z,2.77
2018-07-30T11:19:39.428Z,2.30
2018-07-30T11:22:07.940Z,2.10
2018-07-30T11:24:36.413Z,2.33
2018-07-30T11:27:04.947Z,2.40
2018-07-30T11:29:33.479Z,2.40
2018-07-30T11:32:02.000Z,2.40
2018-07-30T11:34:30.520Z,2.67
2018-07-30T11:36:59.726Z,2.43
2018-07-30T11:39:28.354Z,2.43
2018-07-30T11:41:56.872Z,2.60
2018-07-30T11:44:25.352Z,2.23
2018-07-30T11:46:53.867Z,2.60
2018-07-30T11:49:24.068Z,2.60
2018-07-30T11:51:52.743Z,2.10
2018-07-30T11:54:21.366Z,2.30
2018-07-30T11:56:49.947Z,2.60
2018-07-30T11:59:18.445Z,2.57
2018-07-30T12:01:46.962Z,2.10
2018-07-30T12:04:15.482Z,2.20
2018-07-30T12:06:44.739Z,2.20
2018-07-30T12:09:13.252Z,2.13
2018-07-30T12:11:41.731Z,2.80
2018-07-30T12:14:10.391Z,2.30
2018-07-30T12:16:38.885Z,2.10
2018-07-30T12:19:07.379Z,2.40
2018-07-30T12:21:35.892Z,2.20
2018-07-30T12:24:04.460Z,2.30
2018-07-30T12:26:32.978Z,1.90
2018-07-30T12:29:01.531Z,2.10
2018-07-30T12:31:30.034Z,2.10
2018-07-30T12:33:58.608Z,2.07
2018-07-30T12:36:27.823Z,1.90
2018-07-30T12:38:56.297Z,2.67
2018-07-30T12:41:24.804Z,2.30
2018-07-30T12:43:53.322Z,2.20
2018-07-30T12:46:21.846Z,2.37
2018-07-30T12:48:50.362Z,2.60
2018-07-30T12:51:18.824Z,2.50
2018-07-30T12:53:47.322Z,2.13
2018-07-30T12:56:15.825Z,2.67
2018-07-30T12:58:44.317Z,2.20
2018-07-30T13:01:12.930Z,2.23
2018-07-30T13:03:41.448Z,2.13
2018-07-30T13:06:13.850Z,2.30
2018-07-30T13:08:42.735Z,2.33
2018-07-30T13:11:11.484Z,2.10
2018-07-30T13:13:40.678Z,2.23
2018-07-30T13:16:09.196Z,2.03
2018-07-30T13:18:37.726Z,2.33
2018-07-30T13:21:06.292Z,1.83
2018-07-30T13:23:35.421Z,2.23
2018-07-30T13:26:04.029Z,2.20
2018-07-30T13:28:32.534Z,2.20
2018-07-30T13:31:01.020Z,2.30
2018-07-30T13:33:29.569Z,2.20
2018-07-30T13:35:58.160Z,2.17
2018-07-30T13:38:31.338Z,2.40
2018-07-30T13:40:59.890Z,2.40
2018-07-30T13:43:28.475Z,2.50
2018-07-30T13:45:57.000Z,2.40
2018-07-30T13:48:25.489Z,2.27
2018-07-30T13:50:53.973Z,2.30
2018-07-30T13:53:22.609Z,2.10
2018-07-30T13:55:51.173Z,1.93
2018-07-30T13:58:20.209Z,2.27
2018-07-30T14:00:48.743Z,1.73
2018-07-30T14:03:17.262Z,2.17
2018-07-30T14:05:45.768Z,2.20
2018-07-30T14:08:14.295Z,2.00
2018-07-30T14:10:42.783Z,1.87
2018-07-30T14:13:11.282Z,2.23
2018-07-30T14:15:39.793Z,1.90
2018-07-30T14:18:08.358Z,2.53
2018-07-30T14:20:36.941Z,2.00
2018-07-30T14:23:05.558Z,1.90
2018-07-30T14:25:34.068Z,2.13
2018-07-30T14:28:02.597Z,1.90
2018-07-30T14:30:31.100Z,2.10
2018-07-30T14:32:59.609Z,2.40
2018-07-30T14:35:28.162Z,2.23
2018-07-30T14:37:56.716Z,2.23
2018-07-30T14:40:25.179Z,2.20
2018-07-30T14:42:53.638Z,2.43
2018-07-30T14:45:22.254Z,2.10
2018-07-30T14:47:50.824Z,2.33
2018-07-30T14:50:19.475Z,2.47
2018-07-30T14:52:48.060Z,2.20
2018-07-30T14:55:16.565Z,1.90
2018-07-30T14:57:45.090Z,1.97
2018-07-30T15:00:13.579Z,1.87
2018-07-30T15:02:42.051Z,1.60
2018-07-30T15:05:18.855Z,2.00
2018-07-30T15:07:47.382Z,2.20
2018-07-30T15:10:15.973Z,2.20
2018-07-30T15:12:45.186Z,2.10
2018-07-30T15:15:13.700Z,2.00
2018-07-30T15:17:42.158Z,2.00
2018-07-30T15:20:10.680Z,2.00
2018-07-30T15:22:39.174Z,2.00
2018-07-30T15:25:11.995Z,2.40
2018-07-30T15:27:40.534Z,1.90
2018-07-30T15:30:09.092Z,2.00
2018-07-30T15:32:37.639Z,2.00
2018-07-30T15:35:06.117Z,2.20
2018-07-30T15:37:34.699Z,2.10
2018-07-30T15:40:04.048Z,2.20
2018-07-30T15:42:32.729Z,2.07
2018-07-30T15:45:01.236Z,2.33
2018-07-30T15:47:30.471Z,2.07
2018-07-30T15:49:59.085Z,1.80
2018-07-30T15:52:28.811Z,2.00
2018-07-30T15:54:57.461Z,2.27
2018-07-30T15:57:25.957Z,2.10
2018-07-30T15:59:54.471Z,2.13
2018-07-30T16:02:23.099Z,2.10
2018-07-30T16:04:51.652Z,2.00
2018-07-30T16:07:20.173Z,2.00
2018-07-30T16:09:48.709Z,1.70
2018-07-30T16:12:17.352Z,2.03
2018-07-30T16:14:46.579Z,1.97
2018-07-30T16:17:15.110Z,2.30
2018-07-30T16:19:43.595Z,1.97
2018-07-30T16:22:12.159Z,1.80
2018-07-30T16:24:40.678Z,1.90
2018-07-30T16:27:09.192Z,2.23
2018-07-30T16:29:37.712Z,1.90
2018-07-30T16:32:06.268Z,1.97
2018-07-30T16:34:37.748Z,2.23
2018-07-30T16:37:06.281Z,1.87
2018-07-30T16:39:34.818Z,2.57
2018-07-30T16:42:03.358Z,2.30
2018-07-30T16:44:31.910Z,2.07
2018-07-30T16:47:00.592Z,2.10
2018-07-30T16:49:29.074Z,1.97
2018-07-30T16:57:08.080Z,1.87
2018-07-30T16:59:36.626Z,2.60
2018-07-30T17:02:05.235Z,2.30
2018-07-30T17:04:33.735Z,2.10
2018-07-30T17:07:02.294Z,2.60
2018-07-30T17:09:30.858Z,2.30
2018-07-30T17:11:59.369Z,2.20
2018-07-30T17:14:27.860Z,2.80
2018-07-30T17:16:56.391Z,2.70
2018-07-30T17:19:24.972Z,2.20
2018-07-30T17:21:53.437Z,2.63
2018-07-30T17:24:22.089Z,2.10
2018-07-30T17:26:50.581Z,2.20
2018-07-30T17:29:19.081Z,1.93
2018-07-30T17:31:47.608Z,1.87
2018-07-30T17:34:17.086Z,1.80
2018-07-30T17:36:46.072Z,2.10
2018-07-30T17:39:14.753Z,2.13
2018-07-30T17:41:43.996Z,2.00
2018-07-30T17:44:12.883Z,2.40
2018-07-30T17:46:42.221Z,2.00
2018-07-30T17:49:10.981Z,1.87
2018-07-30T17:51:39.778Z,1.90
2018-07-30T17:54:08.374Z,2.00
2018-07-30T17:56:37.136Z,2.40
2018-07-30T17:59:05.700Z,2.10
2018-07-30T18:01:34.244Z,1.77
2018-07-30T18:04:02.745Z,2.00
2018-07-30T18:06:31.254Z,2.27
2018-07-30T18:09:00.638Z,2.00
2018-07-30T18:11:29.189Z,1.80
2018-07-30T18:13:57.695Z,1.87
2018-07-30T18:16:26.213Z,2.00
2018-07-30T18:18:54.714Z,2.00
2018-07-30T18:21:27.420Z,1.80
2018-07-30T18:23:56.006Z,2.33
2018-07-30T18:26:24.599Z,2.60
2018-07-30T18:28:53.133Z,1.90
2018-07-30T18:31:21.684Z,1.83
2018-07-30T18:33:50.324Z,1.97
2018-07-30T18:36:18.800Z,2.10
2018-07-30T18:38:47.294Z,2.10
2018-07-30T18:41:16.391Z,1.83
2018-07-30T18:43:44.898Z,2.03
2018-07-30T18:46:13.371Z,2.00
2018-07-30T18:48:42.497Z,2.37
2018-07-30T18:51:10.968Z,1.97
2018-07-30T18:53:39.519Z,1.93
2018-07-30T18:56:08.196Z,2.10
2018-07-30T18:58:36.742Z,2.00
2018-07-30T19:01:05.324Z,2.10
2018-07-30T19:03:33.809Z,2.03
2018-07-30T19:06:02.325Z,2.17
2018-07-30T19:08:30.842Z,2.03
2018-07-30T19:10:59.635Z,1.90
2018-07-30T19:13:28.365Z,1.90
2018-07-30T19:15:56.878Z,2.00
2018-07-30T19:18:25.570Z,1.93
2018-07-30T19:20:54.478Z,2.07
2018-07-30T19:23:23.766Z,1.90
2018-07-30T19:25:52.479Z,2.30
2018-07-30T19:28:21.432Z,2.20
2018-07-30T19:30:51.241Z,2.50
2018-07-30T19:33:20.793Z,2.77
2018-07-30T19:35:50.890Z,2.90
2018-07-30T19:38:23.634Z,6.80
2018-07-30T19:40:53.439Z,4.13
2018-07-30T19:43:23.159Z,6.73
2018-07-30T19:45:52.256Z,2.67
2018-07-30T19:48:20.829Z,2.50
2018-07-30T19:50:49.327Z,2.67
2018-07-30T19:53:17.800Z,2.30
2018-07-30T19:55:50.910Z,2.60
2018-07-30T19:58:20.160Z,2.10
2018-07-30T20:00:48.220Z,2.40
2018-07-30T20:03:16.822Z,2.47
2018-07-30T20:05:45.404Z,1.97
2018-07-30T20:08:14.769Z,2.67
2018-07-30T20:10:43.665Z,3.17
2018-07-30T20:13:12.345Z,2.80
2018-07-30T20:15:41.043Z,2.20
2018-07-30T20:18:09.881Z,3.00
2018-07-30T20:20:38.653Z,2.77
2018-07-30T20:23:07.134Z,3.63
2018-07-30T20:25:35.857Z,3.90
2018-07-30T20:28:04.614Z,3.30
2018-07-30T20:30:33.542Z,2.77
2018-07-30T20:33:02.256Z,2.57
2018-07-30T20:35:30.860Z,2.80
2018-07-30T20:37:59.355Z,2.37
2018-07-30T20:40:27.873Z,1.93
2018-07-30T20:42:56.400Z,2.23
2018-07-30T20:45:24.909Z,2.00
2018-07-30T20:47:53.415Z,2.70
2018-07-30T20:50:23.154Z,3.00
2018-07-30T20:52:51.636Z,2.80
2018-07-30T20:55:21.180Z,2.90
2018-07-30T20:57:49.669Z,3.00
2018-07-30T21:00:18.419Z,2.60
2018-07-30T21:02:46.919Z,1.97
2018-07-30T21:05:15.947Z,2.40
2018-07-30T21:07:44.411Z,2.30
2018-07-30T21:10:12.914Z,2.20
2018-07-30T21:12:41.375Z,2.17
2018-07-30T21:15:09.936Z,2.40
2018-07-30T21:17:38.432Z,3.27
2018-07-30T21:20:06.911Z,2.40
2018-07-30T21:22:35.425Z,2.20
2018-07-30T21:25:03.947Z,2.53
2018-07-30T21:27:32.580Z,2.50
2018-07-30T21:30:01.456Z,2.70
2018-07-30T21:32:34.215Z,2.83
2018-07-30T21:35:03.161Z,2.93
2018-07-30T21:37:31.933Z,2.90
2018-07-30T21:40:00.438Z,2.90
2018-07-30T21:42:28.988Z,2.97
2018-07-30T21:44:57.581Z,2.80
2018-07-30T21:47:27.358Z,2.70
2018-07-30T21:49:56.403Z,2.70
2018-07-30T21:52:28.782Z,3.33
2018-07-30T21:54:56.953Z,3.00
2018-07-30T21:57:27.065Z,3.00
2018-07-30T21:59:55.694Z,2.80
2018-07-30T22:02:25.029Z,3.37
2018-07-30T22:04:53.615Z,3.40
2018-07-30T22:07:25.659Z,3.17
2018-07-30T22:09:54.192Z,2.93
2018-07-30T22:12:26.792Z,2.83
2018-07-30T22:14:55.246Z,2.80
2018-07-30T22:17:23.773Z,3.03
2018-07-30T22:19:52.291Z,3.17
2018-07-30T22:22:20.842Z,2.70
2018-07-30T22:24:49.298Z,2.67
2018-07-30T22:27:17.744Z,3.10
2018-07-30T22:29:46.240Z,2.97
2018-07-30T22:32:14.806Z,2.83
2018-07-30T22:34:43.305Z,2.67
2018-07-30T22:37:11.771Z,2.33
2018-07-30T22:39:40.435Z,2.67
2018-07-30T22:42:08.966Z,3.00
2018-07-30T22:44:37.536Z,2.33
2018-07-30T22:47:06.702Z,2.87
2018-07-30T22:49:35.176Z,2.60
2018-07-30T22:52:03.685Z,2.40
2018-07-30T22:54:32.169Z,2.73
2018-07-30T22:57:00.619Z,2.97
2018-07-30T22:59:29.084Z,2.83
2018-07-30T23:01:58.086Z,3.00
2018-07-30T23:04:26.540Z,2.90
2018-07-30T23:06:55.022Z,2.93
2018-07-30T23:09:25.271Z,3.10
2018-07-30T23:11:53.797Z,2.90
2018-07-30T23:14:22.935Z,2.63
2018-07-30T23:16:51.549Z,2.67
2018-07-30T23:19:20.033Z,2.40
2018-07-30T23:21:48.547Z,2.23
2018-07-30T23:24:17.022Z,2.00
2018-07-30T23:26:45.546Z,2.47
2018-07-30T23:29:14.039Z,2.70
2018-07-30T23:31:42.727Z,2.70
2018-07-30T23:34:11.175Z,2.77
2018-07-30T23:36:39.688Z,2.70
2018-07-30T23:39:09.865Z,2.30
2018-07-30T23:41:38.354Z,2.60
2018-07-30T23:44:06.868Z,2.80
2018-07-30T23:46:35.309Z,2.60
2018-07-30T23:49:03.875Z,2.77
2018-07-30T23:51:32.397Z,2.97
2018-07-30T23:54:00.886Z,2.37
2018-07-30T23:56:29.640Z,2.97
2018-07-30T23:58:58.171Z,2.50
